createdAt,value
2018-08-14T00:01:15.028Z,19.47
2018-08-14T00:03:43.018Z,19.27
2018-08-14T00:06:11.009Z,19.47
2018-08-14T00:08:38.983Z,20.60
2018-08-14T00:11:07.005Z,19.97
2018-08-14T00:13:34.940Z,21.03
2018-08-14T00:16:02.915Z,20.07
2018-08-14T00:18:30.880Z,20.83
2018-08-14T00:20:58.948Z,20.20
2018-08-14T00:23:27.048Z,21.30
2018-08-14T00:25:55.068Z,22.60
2018-08-14T00:28:23.044Z,22.03
2018-08-14T00:30:51.024Z,21.47
2018-08-14T00:33:19.193Z,21.93
2018-08-14T00:35:47.157Z,21.07
2018-08-14T00:38:15.129Z,21.23
2018-08-14T00:40:43.132Z,21.97
2018-08-14T00:43:11.389Z,22.37
2018-08-14T00:45:39.357Z,22.30
2018-08-14T00:48:07.565Z,23.50
2018-08-14T00:50:35.570Z,22.63
2018-08-14T00:53:03.878Z,23.03
2018-08-14T00:55:32.214Z,22.93
2018-08-14T00:58:00.449Z,22.33
2018-08-14T01:00:31.022Z,24.80
2018-08-14T01:02:59.377Z,23.67
2018-08-14T01:05:28.706Z,26.20
2018-08-14T01:07:57.017Z,25.77
2018-08-14T01:10:25.353Z,25.63
2018-08-14T01:12:56.665Z,26.77
2018-08-14T01:15:28.066Z,26.90
2018-08-14T01:17:56.954Z,30.90
2018-08-14T01:20:26.641Z,27.47
2018-08-14T01:22:54.917Z,28.40
2018-08-14T01:25:23.201Z,27.40
2018-08-14T01:27:52.957Z,27.37
2018-08-14T01:30:22.667Z,28.23
2018-08-14T01:32:50.917Z,26.67
2018-08-14T01:35:19.354Z,29.37
2018-08-14T01:37:47.465Z,27.87
2018-08-14T01:40:15.718Z,29.00
2018-08-14T01:42:44.146Z,27.33
2018-08-14T01:45:13.621Z,28.90
2018-08-14T01:47:42.138Z,28.90
2018-08-14T01:50:12.559Z,25.60
2018-08-14T01:52:40.806Z,26.87
2018-08-14T01:55:09.157Z,28.63
2018-08-14T01:57:37.427Z,28.60
2018-08-14T02:00:06.275Z,28.60
2018-08-14T02:02:34.555Z,27.47
2018-08-14T02:05:02.818Z,29.10
2018-08-14T02:07:31.047Z,28.63
2018-08-14T02:09:59.291Z,29.73
2018-08-14T02:12:27.514Z,29.30
2018-08-14T02:14:55.742Z,32.23
2018-08-14T02:17:23.998Z,31.67
2018-08-14T02:19:52.242Z,30.40
2018-08-14T02:22:20.439Z,31.13
2018-08-14T02:24:48.670Z,31.63
2018-08-14T02:27:16.882Z,33.03
2018-08-14T02:29:45.082Z,32.33
2018-08-14T02:32:13.318Z,34.67
2018-08-14T02:34:41.319Z,32.50
2018-08-14T02:37:09.302Z,32.00
2018-08-14T02:39:38.023Z,31.73
2018-08-14T02:42:06.030Z,31.03
2018-08-14T02:44:33.974Z,34.00
2018-08-14T02:47:01.969Z,31.13
2018-08-14T02:49:30.187Z,32.30
2018-08-14T02:51:58.416Z,36.50
2018-08-14T02:54:26.395Z,36.03
2018-08-14T02:56:54.371Z,32.80
2018-08-14T02:59:22.378Z,36.57
2018-08-14T03:01:50.382Z,35.27
2018-08-14T03:04:18.430Z,36.63
2018-08-14T03:06:46.376Z,37.07
2018-08-14T03:09:14.956Z,35.27
2018-08-14T03:11:43.202Z,37.80
2018-08-14T03:14:11.424Z,38.83
2018-08-14T03:16:39.499Z,35.63
2018-08-14T03:19:07.755Z,36.67
2018-08-14T03:21:35.975Z,37.77
2018-08-14T03:24:04.252Z,42.10
2018-08-14T03:26:32.558Z,40.23
2018-08-14T03:29:00.748Z,40.93
2018-08-14T03:31:28.951Z,40.33
2018-08-14T03:33:56.991Z,40.50
2018-08-14T03:36:25.095Z,40.80
2018-08-14T03:38:53.297Z,41.43
2018-08-14T03:41:21.508Z,43.43
2018-08-14T03:43:49.755Z,46.13
2018-08-14T03:46:17.803Z,45.97
2018-08-14T03:48:45.862Z,44.27
2018-08-14T03:51:13.854Z,42.47
2018-08-14T03:53:41.807Z,52.83
2018-08-14T03:56:09.795Z,49.37
2018-08-14T03:58:38.542Z,46.60
2018-08-14T04:01:06.514Z,42.90
2018-08-14T04:03:34.483Z,46.00
2018-08-14T04:06:02.781Z,41.03
2018-08-14T04:08:30.695Z,47.17
2018-08-14T04:10:58.923Z,44.03
2018-08-14T04:13:27.844Z,41.70
2018-08-14T04:15:56.628Z,44.30
2018-08-14T04:18:25.624Z,44.23
2018-08-14T04:20:53.872Z,42.93
2018-08-14T04:23:22.092Z,43.63
2018-08-14T04:25:50.387Z,42.30
2018-08-14T04:28:18.616Z,40.80
2018-08-14T04:30:46.840Z,43.63
2018-08-14T04:33:15.099Z,42.10
2018-08-14T04:35:43.082Z,49.90
2018-08-14T04:38:11.392Z,45.73
2018-08-14T04:40:39.611Z,44.13
2018-08-14T04:43:07.915Z,48.50
2018-08-14T04:45:36.260Z,50.20
2018-08-14T04:48:04.515Z,48.70
2018-08-14T04:50:32.727Z,50.47
2018-08-14T04:53:00.968Z,45.77
2018-08-14T04:55:29.236Z,48.73
2018-08-14T04:57:57.456Z,43.02
2018-08-14T05:00:25.660Z,43.53
2018-08-14T05:02:53.669Z,26.10
2018-08-14T05:05:21.853Z,34.63
2018-08-14T05:07:49.808Z,39.33
2018-08-14T05:10:24.531Z,40.43
2018-08-14T05:12:52.480Z,38.93
2018-08-14T05:15:20.432Z,37.93
2018-08-14T05:17:48.416Z,41.60
2018-08-14T05:20:16.440Z,37.60
2018-08-14T05:22:44.399Z,37.67
2018-08-14T05:25:12.389Z,33.53
2018-08-14T05:27:40.354Z,34.43
2018-08-14T05:30:10.997Z,33.27
2018-08-14T05:32:39.164Z,33.77
2018-08-14T05:35:07.544Z,34.60
2018-08-14T05:37:35.612Z,35.00
2018-08-14T05:40:04.353Z,35.67
2018-08-14T05:42:32.311Z,35.17
2018-08-14T05:45:00.301Z,34.30
2018-08-14T05:47:28.307Z,36.73
2018-08-14T05:49:56.277Z,32.50
2018-08-14T05:52:24.265Z,33.73
2018-08-14T05:54:52.548Z,33.57
2018-08-14T05:57:20.772Z,32.90
2018-08-14T05:59:49.140Z,37.20
2018-08-14T06:02:17.506Z,31.43
2018-08-14T06:04:45.755Z,31.70
2018-08-14T06:07:14.116Z,29.92
2018-08-14T06:09:42.368Z,29.23
2018-08-14T06:12:10.813Z,29.03
2018-08-14T06:14:39.969Z,27.20
2018-08-14T06:17:08.211Z,23.83
2018-08-14T06:19:36.164Z,21.03
2018-08-14T06:22:04.385Z,20.57
2018-08-14T06:24:33.140Z,13.77
2018-08-14T06:27:01.398Z,12.77
2018-08-14T06:29:29.693Z,12.80
2018-08-14T06:31:57.904Z,11.17
2018-08-14T06:34:25.926Z,10.20
2018-08-14T06:36:53.909Z,9.40
2018-08-14T06:39:22.108Z,11.10
2018-08-14T06:41:50.381Z,10.77
2018-08-14T06:44:18.585Z,10.37
2018-08-14T06:46:46.842Z,11.17
2018-08-14T06:49:15.101Z,10.33
2018-08-14T06:51:43.373Z,9.40
2018-08-14T06:54:11.633Z,9.17
2018-08-14T06:56:40.302Z,10.10
2018-08-14T06:59:08.549Z,10.20
2018-08-14T07:01:36.838Z,9.33
2018-08-14T07:04:05.229Z,7.27
2018-08-14T07:06:33.445Z,7.22
2018-08-14T07:09:01.697Z,6.90
2018-08-14T07:11:29.965Z,8.90
2018-08-14T07:13:58.216Z,9.50
2018-08-14T07:16:26.454Z,7.97
2018-08-14T07:18:54.721Z,6.30
2018-08-14T07:21:22.968Z,6.83
2018-08-14T07:23:51.314Z,13.57
2018-08-14T07:26:19.517Z,14.70
2018-08-14T07:28:47.707Z,8.68
2018-08-14T07:31:15.914Z,6.60
2018-08-14T07:33:44.126Z,4.67
2018-08-14T07:36:12.342Z,8.00
2018-08-14T07:38:40.538Z,6.07
2018-08-14T07:41:08.769Z,4.87
2018-08-14T07:43:37.057Z,6.90
2018-08-14T07:46:05.357Z,10.00
2018-08-14T07:48:34.098Z,6.63
2018-08-14T07:51:02.378Z,7.50
2018-08-14T07:53:30.725Z,4.43
2018-08-14T07:55:58.937Z,7.03
2018-08-14T07:58:27.174Z,4.23
2018-08-14T08:00:55.419Z,4.57
2018-08-14T08:03:23.642Z,4.73
2018-08-14T08:05:51.946Z,7.43
2018-08-14T08:08:20.182Z,5.57
2018-08-14T08:10:48.438Z,7.13
2018-08-14T08:13:16.686Z,4.50
2018-08-14T08:15:44.942Z,4.97
2018-08-14T08:18:13.191Z,4.37
2018-08-14T08:20:41.370Z,7.23
2018-08-14T08:23:10.142Z,4.57
2018-08-14T08:25:38.405Z,4.90
2018-08-14T08:28:06.631Z,5.20
2018-08-14T08:30:34.582Z,6.53
2018-08-14T08:33:02.546Z,10.23
2018-08-14T08:35:30.506Z,3.97
2018-08-14T08:37:58.655Z,8.60
2018-08-14T08:40:26.636Z,5.33
2018-08-14T08:42:54.603Z,6.87
2018-08-14T08:45:22.631Z,6.47
2018-08-14T08:47:55.117Z,4.83
2018-08-14T08:50:23.087Z,5.43
2018-08-14T08:52:52.215Z,5.30
2018-08-14T08:55:20.236Z,7.10
2018-08-14T08:57:48.191Z,5.77
2018-08-14T09:00:16.799Z,7.60
2018-08-14T09:02:44.755Z,7.40
2018-08-14T09:05:14.019Z,7.07
2018-08-14T09:07:42.007Z,4.97
2018-08-14T09:10:10.887Z,6.93
2018-08-14T09:12:39.043Z,7.47
2018-08-14T09:15:07.699Z,7.43
2018-08-14T09:17:35.728Z,7.07
2018-08-14T09:20:04.208Z,8.13
2018-08-14T09:22:32.284Z,5.87
2018-08-14T09:25:00.257Z,6.47
2018-08-14T09:27:28.562Z,5.83
2018-08-14T09:29:56.779Z,5.50
2018-08-14T09:32:24.761Z,9.83
2018-08-14T09:34:53.073Z,6.27
2018-08-14T09:37:21.280Z,6.10
2018-08-14T09:39:49.520Z,6.30
2018-08-14T09:42:17.762Z,3.07
2018-08-14T09:44:45.967Z,5.57
2018-08-14T09:47:14.225Z,4.37
2018-08-14T09:49:42.436Z,6.30
2018-08-14T09:52:14.348Z,6.00
2018-08-14T09:54:42.588Z,5.40
2018-08-14T09:57:10.870Z,5.70
2018-08-14T09:59:39.128Z,5.83
2018-08-14T10:02:12.671Z,9.10
2018-08-14T10:04:46.917Z,4.47
2018-08-14T10:07:19.487Z,5.00
2018-08-14T10:09:47.544Z,4.67
2018-08-14T10:12:15.836Z,5.33
2018-08-14T10:14:44.086Z,6.40
2018-08-14T10:17:15.896Z,9.07
2018-08-14T10:19:44.112Z,7.33
2018-08-14T10:22:12.344Z,6.30
2018-08-14T10:24:41.584Z,6.50
2018-08-14T10:27:09.808Z,5.97
2018-08-14T10:29:38.220Z,11.20
2018-08-14T10:32:06.549Z,4.27
2018-08-14T10:34:34.796Z,10.43
2018-08-14T10:37:03.121Z,6.03
2018-08-14T10:39:31.360Z,6.70
2018-08-14T10:41:59.599Z,6.80
2018-08-14T10:44:27.921Z,7.70
2018-08-14T10:46:55.917Z,6.10
2018-08-14T10:49:24.153Z,5.13
2018-08-14T10:51:52.388Z,5.47
2018-08-14T10:54:20.613Z,6.43
2018-08-14T10:56:48.877Z,9.03
2018-08-14T10:59:17.157Z,3.57
2018-08-14T11:01:45.404Z,6.80
2018-08-14T11:04:13.709Z,6.43
2018-08-14T11:06:41.936Z,4.87
2018-08-14T11:09:10.154Z,5.93
2018-08-14T11:11:43.909Z,10.20
2018-08-14T11:14:15.309Z,7.43
2018-08-14T11:16:43.657Z,8.07
2018-08-14T11:19:11.877Z,7.10
2018-08-14T11:21:40.182Z,4.63
2018-08-14T11:24:08.733Z,9.93
2018-08-14T11:26:37.249Z,6.47
2018-08-14T11:29:05.501Z,3.87
2018-08-14T11:31:33.798Z,6.50
2018-08-14T11:34:02.093Z,4.33
2018-08-14T11:36:30.321Z,5.63
2018-08-14T11:38:58.325Z,4.67
2018-08-14T11:41:26.357Z,7.50
2018-08-14T11:43:54.329Z,5.77
2018-08-14T11:46:22.288Z,9.50
2018-08-14T11:48:50.283Z,15.83
2018-08-14T11:51:18.509Z,9.63
2018-08-14T11:53:46.487Z,7.80
2018-08-14T11:56:14.697Z,16.43
2018-08-14T11:58:42.930Z,4.33
2018-08-14T12:01:11.241Z,4.10
2018-08-14T12:03:39.474Z,5.83
2018-08-14T12:06:07.753Z,8.30
2018-08-14T12:08:35.981Z,6.40
2018-08-14T12:11:04.291Z,4.77
2018-08-14T12:13:32.486Z,3.87
2018-08-14T12:16:00.450Z,6.60
2018-08-14T12:18:28.496Z,5.13
2018-08-14T12:20:56.430Z,7.13
2018-08-14T12:23:24.421Z,4.13
2018-08-14T12:25:52.649Z,6.57
2018-08-14T12:28:20.886Z,4.27
2018-08-14T12:30:49.143Z,5.50
2018-08-14T12:33:17.410Z,5.77
2018-08-14T12:35:45.646Z,7.83
2018-08-14T12:38:13.950Z,4.43
2018-08-14T12:40:42.283Z,7.67
2018-08-14T12:43:10.486Z,8.60
2018-08-14T12:45:38.811Z,5.53
2018-08-14T12:48:07.074Z,6.73
2018-08-14T12:50:35.329Z,7.53
2018-08-14T12:53:03.586Z,4.60
2018-08-14T12:55:31.801Z,6.13
2018-08-14T12:58:00.018Z,3.83
2018-08-14T13:00:29.499Z,3.00
2018-08-14T13:02:57.758Z,7.53
2018-08-14T13:05:26.775Z,6.90
2018-08-14T13:07:55.255Z,3.47
2018-08-14T13:10:23.532Z,6.30
2018-08-14T13:12:51.766Z,4.60
2018-08-14T13:15:20.374Z,5.13
2018-08-14T13:17:57.190Z,4.77
2018-08-14T13:20:25.405Z,3.70
2018-08-14T13:22:53.667Z,4.00
2018-08-14T13:25:22.048Z,8.33
2018-08-14T13:27:50.267Z,4.10
2018-08-14T13:30:18.464Z,9.50
2018-08-14T13:32:46.720Z,6.00
2018-08-14T13:35:14.964Z,9.50
2018-08-14T13:37:43.175Z,7.87
2018-08-14T13:40:11.984Z,4.87
2018-08-14T13:42:40.163Z,4.60
2018-08-14T13:45:09.211Z,6.67
2018-08-14T13:47:37.254Z,6.23
2018-08-14T13:50:05.371Z,6.50
2018-08-14T13:52:33.471Z,6.27
2018-08-14T13:55:01.558Z,9.50
2018-08-14T13:57:29.539Z,5.60
2018-08-14T13:59:57.496Z,6.80
2018-08-14T14:02:25.460Z,5.73
2018-08-14T14:04:53.427Z,8.50
2018-08-14T14:07:21.395Z,5.13
2018-08-14T14:09:49.348Z,6.47
2018-08-14T14:12:17.335Z,3.83
2018-08-14T14:14:45.364Z,5.23
2018-08-14T14:17:13.362Z,5.83
2018-08-14T14:19:42.059Z,5.07
2018-08-14T14:22:10.079Z,8.30
2018-08-14T14:24:38.111Z,5.93
2018-08-14T14:27:06.076Z,6.20
2018-08-14T14:29:34.075Z,4.90
2018-08-14T14:32:02.097Z,6.27
2018-08-14T14:34:30.072Z,8.40
2018-08-14T14:36:58.024Z,13.63
2018-08-14T14:39:26.320Z,5.27
2018-08-14T14:41:54.588Z,5.60
2018-08-14T14:44:22.807Z,3.73
2018-08-14T14:46:51.060Z,4.37
2018-08-14T14:49:19.296Z,8.37
2018-08-14T14:51:47.496Z,4.63
2018-08-14T14:54:15.736Z,3.90
2018-08-14T14:56:43.940Z,6.27
2018-08-14T14:59:12.184Z,10.57
2018-08-14T15:01:40.476Z,5.33
2018-08-14T15:04:09.516Z,5.43
2018-08-14T15:06:37.743Z,5.40
2018-08-14T15:09:09.008Z,4.70
2018-08-14T15:11:37.273Z,7.53
2018-08-14T15:14:05.523Z,6.43
2018-08-14T15:16:33.867Z,4.47
2018-08-14T15:19:12.765Z,9.27
2018-08-14T15:21:41.336Z,5.10
2018-08-14T15:24:09.981Z,3.90
2018-08-14T15:26:41.565Z,5.40
2018-08-14T15:29:17.921Z,5.60
2018-08-14T15:31:50.469Z,6.07
2018-08-14T15:34:20.646Z,5.77
2018-08-14T15:36:52.757Z,5.17
2018-08-14T15:39:21.680Z,8.00
2018-08-14T15:41:50.000Z,3.37
2018-08-14T15:44:18.300Z,4.40
2018-08-14T15:46:46.550Z,6.63
2018-08-14T15:49:15.082Z,5.67
2018-08-14T15:51:43.648Z,7.03
2018-08-14T15:54:12.845Z,3.93
2018-08-14T15:56:41.477Z,6.20
2018-08-14T15:59:12.936Z,3.37
2018-08-14T16:01:41.263Z,5.03
2018-08-14T16:04:09.965Z,5.07
2018-08-14T16:06:37.948Z,4.17
2018-08-14T16:09:08.368Z,6.00
2018-08-14T16:11:36.385Z,6.70
2018-08-14T16:14:04.812Z,4.63
2018-08-14T16:16:32.777Z,4.17
2018-08-14T16:19:00.808Z,2.30
2018-08-14T16:21:28.753Z,5.43
2018-08-14T16:23:56.889Z,3.40
2018-08-14T16:26:25.413Z,9.10
2018-08-14T16:28:53.537Z,7.90
2018-08-14T16:31:21.492Z,3.23
2018-08-14T16:33:49.468Z,3.20
2018-08-14T16:36:18.737Z,3.07
2018-08-14T16:38:46.689Z,6.00
2018-08-14T16:41:14.697Z,3.20
2018-08-14T16:43:43.654Z,6.27
2018-08-14T16:46:11.930Z,5.17
2018-08-14T16:48:40.166Z,4.43
2018-08-14T16:51:08.381Z,4.23
2018-08-14T16:53:36.606Z,6.23
2018-08-14T16:56:04.993Z,5.43
2018-08-14T16:58:33.214Z,3.00
2018-08-14T17:01:01.493Z,5.07
2018-08-14T17:03:29.878Z,5.10
2018-08-14T17:05:59.382Z,3.47
2018-08-14T17:08:28.258Z,4.77
2018-08-14T17:10:56.979Z,2.70
2018-08-14T17:13:25.366Z,4.00
2018-08-14T17:15:53.626Z,3.30
2018-08-14T17:18:21.894Z,4.60
2018-08-14T17:20:49.424Z,5.30
2018-08-14T17:23:17.379Z,2.40
2018-08-14T17:25:45.398Z,7.63
2018-08-14T17:28:13.367Z,3.50
2018-08-14T17:30:41.327Z,2.77
2018-08-14T17:33:09.354Z,2.63
2018-08-14T17:35:37.319Z,2.67
2018-08-14T17:38:05.399Z,4.63
2018-08-14T17:40:33.494Z,2.87
2018-08-14T17:43:01.472Z,4.77
2018-08-14T17:45:30.568Z,5.10
2018-08-14T17:48:00.036Z,3.30
2018-08-14T17:50:28.447Z,4.20
2018-08-14T17:52:56.411Z,8.67
2018-08-14T17:55:25.173Z,3.10
2018-08-14T17:57:53.172Z,2.23
2018-08-14T18:00:23.156Z,2.53
2018-08-14T18:02:52.016Z,4.10
2018-08-14T18:05:19.972Z,2.70
2018-08-14T18:07:47.932Z,2.80
2018-08-14T18:10:17.576Z,2.17
2018-08-14T18:12:45.844Z,1.73
2018-08-14T18:15:14.540Z,2.80
2018-08-14T18:17:43.339Z,3.13
2018-08-14T18:20:15.968Z,3.20
2018-08-14T18:22:43.983Z,1.37
2018-08-14T18:25:13.377Z,1.83
2018-08-14T18:27:41.706Z,2.07
2018-08-14T18:30:10.263Z,3.13
2018-08-14T18:32:38.268Z,2.13
2018-08-14T18:35:06.506Z,3.43
2018-08-14T18:37:34.605Z,3.20
2018-08-14T18:40:02.644Z,3.33
2018-08-14T18:42:31.108Z,3.23
2018-08-14T18:44:59.127Z,1.70
2018-08-14T18:47:27.217Z,1.67
2018-08-14T18:49:55.276Z,2.80
2018-08-14T18:52:23.235Z,2.60
2018-08-14T18:54:51.252Z,3.77
2018-08-14T18:57:19.328Z,1.87
2018-08-14T18:59:47.308Z,3.43
2018-08-14T19:02:15.312Z,2.03
2018-08-14T19:04:44.145Z,2.33
2018-08-14T19:07:12.143Z,2.53
2018-08-14T19:09:40.216Z,3.47
2018-08-14T19:12:08.576Z,1.23
2018-08-14T19:14:36.543Z,3.03
2018-08-14T19:17:04.715Z,3.90
2018-08-14T19:19:32.648Z,3.17
2018-08-14T19:22:00.745Z,1.50
2018-08-14T19:24:28.960Z,4.60
2018-08-14T19:26:57.656Z,4.87
2018-08-14T19:29:25.981Z,4.30
2018-08-14T19:31:54.197Z,3.15
2018-08-14T19:34:30.610Z,3.47
2018-08-14T19:36:59.318Z,6.03
2018-08-14T19:39:28.680Z,4.50
2018-08-14T19:41:57.014Z,4.75
2018-08-14T19:44:25.210Z,1.30
2018-08-14T19:46:53.484Z,2.83
2018-08-14T19:49:21.742Z,7.43
2018-08-14T19:51:49.958Z,1.90
2018-08-14T19:54:18.178Z,3.87
2018-08-14T19:56:46.558Z,2.70
2018-08-14T19:59:14.778Z,5.77
2018-08-14T20:01:42.995Z,3.63
2018-08-14T20:04:11.281Z,1.57
2018-08-14T20:06:39.511Z,4.10
2018-08-14T20:09:09.233Z,4.33
2018-08-14T20:11:37.783Z,3.20
2018-08-14T20:14:06.183Z,3.23
2018-08-14T20:16:34.454Z,3.33
2018-08-14T20:19:02.687Z,3.20
2018-08-14T20:21:30.955Z,4.23
2018-08-14T20:23:58.947Z,3.23
2018-08-14T20:26:26.931Z,2.30
2018-08-14T20:28:54.882Z,7.17
2018-08-14T20:31:22.863Z,2.27
2018-08-14T20:33:50.879Z,2.20
2018-08-14T20:36:18.859Z,1.93
2018-08-14T20:38:46.821Z,4.13
2018-08-14T20:41:14.867Z,2.73
2018-08-14T20:43:42.831Z,4.10
2018-08-14T20:46:10.811Z,3.13
2018-08-14T20:48:38.795Z,1.57
2018-08-14T20:51:06.801Z,5.90
2018-08-14T20:53:34.839Z,4.23
2018-08-14T20:56:02.815Z,4.77
2018-08-14T20:58:30.803Z,4.30
2018-08-14T21:00:58.784Z,3.97
2018-08-14T21:03:26.772Z,3.40
2018-08-14T21:05:54.764Z,3.53
2018-08-14T21:08:22.712Z,4.47
2018-08-14T21:10:50.677Z,2.83
2018-08-14T21:13:18.728Z,3.40
2018-08-14T21:15:52.152Z,1.87
2018-08-14T21:18:20.113Z,1.47
2018-08-14T21:20:48.101Z,3.47
2018-08-14T21:23:16.136Z,2.97
2018-08-14T21:25:44.835Z,2.23
2018-08-14T21:28:12.828Z,6.70
2018-08-14T21:30:40.798Z,1.73
2018-08-14T21:33:08.785Z,2.80
2018-08-14T21:35:36.792Z,2.03
2018-08-14T21:38:04.825Z,4.47
2018-08-14T21:40:32.809Z,2.20
2018-08-14T21:43:00.753Z,2.77
2018-08-14T21:45:28.717Z,2.87
2018-08-14T21:47:56.688Z,2.60
2018-08-14T21:50:24.633Z,2.50
2018-08-14T21:52:52.649Z,5.13
2018-08-14T21:55:20.599Z,2.40
2018-08-14T21:57:48.608Z,2.47
2018-08-14T22:00:20.755Z,4.00
2018-08-14T22:02:48.840Z,2.90
2018-08-14T22:05:17.133Z,2.60
2018-08-14T22:07:45.950Z,1.93
2018-08-14T22:10:14.580Z,3.27
2018-08-14T22:12:42.549Z,2.90
2018-08-14T22:15:10.612Z,4.47
2018-08-14T22:17:38.508Z,3.93
2018-08-14T22:20:08.507Z,2.53
2018-08-14T22:22:36.466Z,4.10
2018-08-14T22:25:04.685Z,3.87
2018-08-14T22:27:32.640Z,2.70
2018-08-14T22:30:00.665Z,3.60
2018-08-14T22:32:28.641Z,5.23
2018-08-14T22:34:56.600Z,4.47
2018-08-14T22:37:24.585Z,3.00
2018-08-14T22:39:52.544Z,5.77
2018-08-14T22:42:20.513Z,2.50
2018-08-14T22:44:48.481Z,5.23
2018-08-14T22:47:16.440Z,4.43
2018-08-14T22:49:45.100Z,4.73
2018-08-14T22:52:13.076Z,5.53
2018-08-14T22:54:41.061Z,4.80
2018-08-14T22:57:09.016Z,5.20
2018-08-14T22:59:37.004Z,4.77
2018-08-14T23:02:05.076Z,5.67
2018-08-14T23:04:33.040Z,5.40
2018-08-14T23:07:01.032Z,5.03
2018-08-14T23:09:29.052Z,5.40
2018-08-14T23:11:57.020Z,5.60
2018-08-14T23:14:25.098Z,7.27
2018-08-14T23:16:53.041Z,5.72
2018-08-14T23:19:20.993Z,5.80
2018-08-14T23:21:48.965Z,9.87
2018-08-14T23:24:16.969Z,5.13
2018-08-14T23:26:45.662Z,5.80
2018-08-14T23:29:13.633Z,5.73
2018-08-14T23:31:42.241Z,6.63
2018-08-14T23:34:10.181Z,6.77
2018-08-14T23:36:38.141Z,7.57
2018-08-14T23:39:07.390Z,7.63
2018-08-14T23:41:35.341Z,6.87
2018-08-14T23:44:03.309Z,7.70
2018-08-14T23:46:31.265Z,7.70
2018-08-14T23:48:59.469Z,8.40
2018-08-14T23:51:29.397Z,8.13
2018-08-14T23:53:57.641Z,8.93
2018-08-14T23:56:25.821Z,9.10
2018-08-14T23:58:54.066Z,10.00
